Time;durP1;ratioP1;P1;durP2;ratioP2;P2;SDS_P1;SDS_P2;PMS_P1;PMS_P2;Temp;Humidity;BMP_temperature;BMP_pressure;BME280_temperature;BME280_humidity;BME280_pressure;Samples;Min_cycle;Max_cycle;Signal;HPM_P1;HPM_P2
2023/10/26 00:00:36;;;;;;;4.28;0.70;;;;;;;9.93;100.00;97798.84;5043873;28;20080;-92
2023/10/26 00:03:01;;;;;;;3.70;0.50;;;;;;;9.90;100.00;97801.91;5054863;28;20036;-92
2023/10/26 00:05:27;;;;;;;0.88;0.50;;;;;;;9.88;100.00;97800.47;5053293;28;20670;-94
2023/10/26 00:07:53;;;;;;;2.00;0.60;;;;;;;9.87;100.00;97793.56;5069109;28;20045;-93
2023/10/26 00:10:19;;;;;;;4.35;0.68;;;;;;;9.87;100.00;97791.75;5086539;28;20039;-94
2023/10/26 00:12:45;;;;;;;4.22;0.60;;;;;;;9.87;100.00;97790.94;5044695;28;20032;-90
2023/10/26 00:15:11;;;;;;;4.80;0.60;;;;;;;9.87;100.00;97791.75;5068256;28;20063;-91
2023/10/26 00:17:37;;;;;;;1.40;0.45;;;;;;;9.88;100.00;97782.81;5037268;28;20032;-92
2023/10/26 00:20:05;;;;;;;1.77;0.47;;;;;;;9.87;100.00;97786.47;5049113;28;20056;-91
2023/10/26 00:22:31;;;;;;;3.42;0.60;;;;;;;9.82;100.00;97782.81;5054348;28;20176;-94
2023/10/26 00:24:56;;;;;;;4.95;0.50;;;;;;;9.78;100.00;97785.88;5054634;28;20049;-94
2023/10/26 00:27:22;;;;;;;4.70;0.52;;;;;;;9.78;100.00;97783.22;5065267;28;20048;-92
2023/10/26 00:29:48;;;;;;;3.35;0.73;;;;;;;9.78;100.00;97785.88;5033924;28;20036;-90
2023/10/26 00:32:17;;;;;;;1.35;0.43;;;;;;;9.80;100.00;97793.56;5040203;28;20120;-91
2023/10/26 00:34:43;;;;;;;6.57;0.75;;;;;;;9.78;100.00;97792.97;5037783;28;20033;-92
2023/10/26 00:37:09;;;;;;;4.75;0.85;;;;;;;9.73;100.00;97777.75;5066625;28;20381;-89
2023/10/26 00:39:35;;;;;;;2.88;0.65;;;;;;;9.73;100.00;97790.16;5074562;28;20044;-89
2023/10/26 00:42:01;;;;;;;5.10;0.65;;;;;;;9.68;100.00;97780.22;5051238;28;20644;-91
2023/10/26 00:44:27;;;;;;;2.00;0.60;;;;;;;9.67;100.00;97779.38;5055039;28;20139;-91
2023/10/26 00:46:54;;;;;;;0.50;0.40;;;;;;;9.66;100.00;97774.31;5052543;28;20807;-90
2023/10/26 00:49:20;;;;;;;7.03;0.70;;;;;;;9.60;100.00;97769.88;5048883;28;20041;-90
2023/10/26 00:52:01;;;;;;;5.80;0.90;;;;;;;9.62;100.00;97771.28;5046843;28;20167;-91
2023/10/26 00:54:27;;;;;;;3.47;0.68;;;;;;;9.58;100.00;97767.44;5012061;28;20123;-91
2023/10/26 00:56:55;;;;;;;3.60;0.65;;;;;;;9.60;100.00;97764.59;5068546;28;20037;-91
2023/10/26 00:59:20;;;;;;;5.53;0.73;;;;;;;9.57;100.00;97765.81;5047367;28;20496;-92
2023/10/26 01:01:48;;;;;;;1.67;0.55;;;;;;;9.58;100.00;97761.34;5049560;28;20032;-90
2023/10/26 01:04:14;;;;;;;5.10;0.70;;;;;;;9.56;100.00;97758.91;5032960;28;20048;-90
2023/10/26 01:06:41;;;;;;;4.63;0.93;;;;;;;9.54;100.00;97745.09;5055220;28;20056;-93
2023/10/26 01:09:08;;;;;;;3.45;0.80;;;;;;;9.56;100.00;97753.63;5024586;28;20105;-92
2023/10/26 01:11:35;;;;;;;2.28;0.93;;;;;;;9.58;100.00;97750.78;5035292;28;20059;-95
2023/10/26 01:14:00;;;;;;;6.85;0.80;;;;;;;9.59;100.00;97752.44;5035102;28;20028;-91
2023/10/26 01:16:26;;;;;;;9.70;1.25;;;;;;;9.60;100.00;97754.88;5047046;28;20041;-91
2023/10/26 01:18:52;;;;;;;7.18;1.27;;;;;;;9.64;100.00;97749.97;5039117;28;20039;-92
2023/10/26 01:21:18;;;;;;;8.18;0.85;;;;;;;9.66;100.00;97747.94;5048907;28;20086;-90
2023/10/26 01:23:44;;;;;;;3.97;1.05;;;;;;;9.66;100.00;97748.78;5034553;28;20044;-91
2023/10/26 01:26:09;;;;;;;5.50;1.10;;;;;;;9.66;100.00;97746.13;5065011;28;20044;-91
2023/10/26 01:28:35;;;;;;;7.95;1.05;;;;;;;9.69;100.00;97755.44;5041466;28;20064;-90
2023/10/26 01:31:01;;;;;;;6.78;0.90;;;;;;;9.70;100.00;97754.41;5041334;28;20473;-91
2023/10/26 01:33:26;;;;;;;4.35;0.70;;;;;;;9.70;100.00;97757.06;5057734;28;20029;-91
2023/10/26 01:35:52;;;;;;;2.33;1.08;;;;;;;9.67;100.00;97758.28;5040505;28;20559;-91
2023/10/26 01:38:18;;;;;;;7.38;1.17;;;;;;;9.67;100.00;97754.84;5061206;28;20040;-92
2023/10/26 01:40:44;;;;;;;4.20;0.98;;;;;;;9.68;100.00;97744.06;5047547;28;20024;-91
2023/10/26 01:43:09;;;;;;;7.72;1.00;;;;;;;9.69;100.00;97750.16;5048824;28;20032;-89
2023/10/26 01:45:35;;;;;;;4.15;1.10;;;;;;;9.68;100.00;97738.00;5030333;28;20037;-92
2023/10/26 01:48:04;;;;;;;7.30;1.23;;;;;;;9.71;100.00;97740.25;5053950;28;20384;-92
2023/10/26 01:50:31;;;;;;;4.07;1.30;;;;;;;9.74;100.00;97745.09;5034952;28;20032;-92
2023/10/26 01:52:57;;;;;;;7.03;1.10;;;;;;;9.74;100.00;97734.53;5048934;28;20037;-91
2023/10/26 01:55:23;;;;;;;8.32;1.45;;;;;;;9.75;100.00;97737.97;5050256;28;20037;-91
2023/10/26 01:57:49;;;;;;;6.72;1.20;;;;;;;9.73;100.00;97740.03;5042014;28;20397;-89
2023/10/26 02:00:14;;;;;;;11.73;1.50;;;;;;;9.76;100.00;97739.63;5035181;28;20086;-91
2023/10/26 02:02:41;;;;;;;9.38;1.65;;;;;;;9.77;100.00;97735.94;5050991;28;20033;-91
2023/10/26 02:05:07;;;;;;;15.13;3.20;;;;;;;9.80;100.00;97730.25;5034825;28;20028;-91
2023/10/26 02:07:33;;;;;;;18.35;2.60;;;;;;;9.80;100.00;97731.09;5031744;28;20029;-91
2023/10/26 02:09:59;;;;;;;11.38;2.20;;;;;;;9.83;100.00;97729.03;5026763;28;20372;-91
2023/10/26 02:12:25;;;;;;;7.70;1.52;;;;;;;9.83;100.00;97727.22;5060955;28;20123;-92
2023/10/26 02:14:51;;;;;;;6.88;2.00;;;;;;;9.83;100.00;97737.75;5048092;28;20127;-92
2023/10/26 02:17:17;;;;;;;11.90;2.38;;;;;;;9.86;100.00;97736.56;5036375;28;20457;-91
2023/10/26 02:19:42;;;;;;;13.68;2.10;;;;;;;9.86;100.00;97728.66;5047248;28;20037;-91
2023/10/26 02:22:08;;;;;;;9.70;2.35;;;;;;;9.87;100.00;97731.06;5054676;28;20032;-90
2023/10/26 02:24:34;;;;;;;10.43;2.35;;;;;;;9.90;100.00;97729.84;5037973;28;20055;-92
2023/10/26 02:27:00;;;;;;;14.95;2.25;;;;;;;9.90;100.00;97724.56;5071804;28;20052;-91
2023/10/26 02:29:25;;;;;;;10.88;2.08;;;;;;;9.91;100.00;97723.53;5051316;28;20044;-90
2023/10/26 02:31:51;;;;;;;9.13;2.08;;;;;;;9.91;100.00;97715.63;5055992;28;20320;-90
2023/10/26 02:34:17;;;;;;;14.98;2.00;;;;;;;9.88;100.00;97710.75;5049044;28;20393;-92
2023/10/26 02:36:42;;;;;;;8.68;2.17;;;;;;;9.86;100.00;97715.44;5027789;28;21333;-91
2023/10/26 02:39:08;;;;;;;13.50;2.15;;;;;;;9.85;100.00;97708.53;5033278;28;20033;-89
2023/10/26 02:41:34;;;;;;;13.07;2.05;;;;;;;9.86;100.00;97710.19;5036936;28;20545;-92
2023/10/26 02:44:00;;;;;;;16.67;2.92;;;;;;;9.85;100.00;97704.09;5034559;28;20120;-90
2023/10/26 02:46:26;;;;;;;15.18;2.35;;;;;;;9.83;100.00;97697.38;5066069;28;20536;-90
2023/10/26 02:48:52;;;;;;;9.10;2.13;;;;;;;9.84;100.00;97699.84;5056872;28;20044;-90
2023/10/26 02:51:17;;;;;;;17.08;2.67;;;;;;;9.84;100.00;97691.91;5046529;28;20083;-91
2023/10/26 02:53:44;;;;;;;14.60;2.08;;;;;;;9.84;100.00;97691.91;5053383;28;20023;-90
2023/10/26 02:56:10;;;;;;;21.80;3.25;;;;;;;9.86;100.00;97689.06;5039965;28;20036;-91
2023/10/26 02:58:35;;;;;;;14.98;2.75;;;;;;;9.84;100.00;97676.09;5036533;28;20032;-90
2023/10/26 03:01:02;;;;;;;9.18;1.75;;;;;;;9.86;100.00;97678.50;5035306;28;20484;-91
2023/10/26 03:03:28;;;;;;;15.30;2.50;;;;;;;9.85;100.00;97672.41;5064465;28;20036;-91
2023/10/26 03:05:54;;;;;;;8.57;2.05;;;;;;;9.84;100.00;97672.63;5051484;28;20033;-91
2023/10/26 03:08:19;;;;;;;17.83;2.22;;;;;;;9.84;100.00;97667.34;5033104;28;20420;-91
2023/10/26 03:10:45;;;;;;;10.10;2.47;;;;;;;9.82;100.00;97659.66;5031945;28;20088;-91
2023/10/26 03:13:11;;;;;;;12.65;1.92;;;;;;;9.83;100.00;97661.25;5031609;28;20033;-92
2023/10/26 03:15:37;;;;;;;12.18;2.20;;;;;;;9.83;100.00;97657.78;5048962;28;20183;-91
2023/10/26 03:18:03;;;;;;;18.30;2.55;;;;;;;9.80;100.00;97654.59;5066756;28;20481;-91
2023/10/26 03:20:31;;;;;;;9.60;2.03;;;;;;;9.82;100.00;97656.19;5047540;28;20056;-91
2023/10/26 03:22:57;;;;;;;10.48;2.63;;;;;;;9.82;100.00;97658.81;5032659;28;20038;-92
2023/10/26 03:25:23;;;;;;;15.00;2.38;;;;;;;9.83;100.00;97655.97;5041041;28;20444;-91
2023/10/26 03:27:48;;;;;;;10.23;2.35;;;;;;;9.83;100.00;97652.53;5032806;28;20413;-91
2023/10/26 03:30:15;;;;;;;11.82;1.92;;;;;;;9.85;100.00;97653.94;5049760;28;20028;-91
2023/10/26 03:32:42;;;;;;;14.77;2.10;;;;;;;9.86;100.00;97654.78;5029998;28;20020;-91
2023/10/26 03:35:08;;;;;;;13.93;1.98;;;;;;;9.87;100.00;97649.28;5054336;28;20067;-90
2023/10/26 03:37:36;;;;;;;9.98;1.90;;;;;;;9.86;100.00;97639.72;5049762;28;20091;-90
2023/10/26 03:40:04;;;;;;;8.70;1.70;;;;;;;9.89;100.00;97641.94;5052082;28;20575;-90
2023/10/26 03:42:29;;;;;;;11.85;2.28;;;;;;;9.88;100.00;97634.25;5048913;28;20112;-90
2023/10/26 03:44:55;;;;;;;14.35;1.90;;;;;;;9.87;100.00;97630.81;5050761;28;20070;-92
2023/10/26 03:47:21;;;;;;;14.05;2.00;;;;;;;9.87;100.00;97627.38;5054411;28;20040;-91
2023/10/26 03:49:51;;;;;;;9.75;2.10;;;;;;;9.87;100.00;97625.53;5049024;28;20036;-90
2023/10/26 03:52:16;;;;;;;7.43;1.88;;;;;;;9.87;100.00;97632.63;5051997;28;20103;-90
2023/10/26 03:54:42;;;;;;;11.80;2.17;;;;;;;9.87;100.00;97632.63;5053131;28;20040;-91
2023/10/26 03:57:08;;;;;;;4.20;1.45;;;;;;;9.87;100.00;97624.72;5037350;28;20041;-90
2023/10/26 03:59:34;;;;;;;6.47;1.58;;;;;;;9.86;100.00;97626.53;5051710;28;20028;-90
2023/10/26 04:02:00;;;;;;;16.63;3.58;;;;;;;9.83;100.00;97619.06;5053366;28;20377;-90
2023/10/26 04:04:26;;;;;;;8.70;2.78;;;;;;;9.85;100.00;97622.28;5050969;28;20043;-91
2023/10/26 04:06:51;;;;;;;12.63;1.77;;;;;;;9.86;100.00;97626.53;5050800;28;20760;-91
2023/10/26 04:09:17;;;;;;;10.20;2.25;;;;;;;9.87;100.00;97625.53;5033387;28;20906;-90
2023/10/26 04:11:44;;;;;;;6.55;1.48;;;;;;;9.87;100.00;97619.44;5060488;28;20036;-90
2023/10/26 04:14:10;;;;;;;10.45;2.08;;;;;;;9.88;100.00;97619.25;5050061;28;20041;-90
2023/10/26 04:16:36;;;;;;;6.55;2.10;;;;;;;9.89;100.00;97628.75;5029019;28;20110;-90
2023/10/26 04:19:02;;;;;;;6.25;1.60;;;;;;;9.89;100.00;97620.06;5040349;28;20044;-90
2023/10/26 04:21:28;;;;;;;9.27;1.88;;;;;;;9.90;100.00;97624.31;5044194;28;20427;-90
2023/10/26 04:23:54;;;;;;;6.68;1.75;;;;;;;9.91;100.00;97620.63;5050121;28;20040;-90
2023/10/26 04:26:19;;;;;;;14.13;1.98;;;;;;;9.91;100.00;97624.09;5042541;28;20416;-90
2023/10/26 04:28:45;;;;;;;11.85;2.35;;;;;;;9.93;100.00;97621.25;5049711;28;20045;-90
2023/10/26 04:31:11;;;;;;;5.30;1.73;;;;;;;9.93;100.00;97610.69;5037291;28;20039;-90
2023/10/26 04:33:36;;;;;;;11.95;1.50;;;;;;;9.95;100.00;97613.94;5065502;28;20033;-90
2023/10/26 04:36:04;;;;;;;8.10;1.50;;;;;;;9.96;100.00;97610.28;5049959;28;20450;-91
2023/10/26 04:38:30;;;;;;;8.98;1.70;;;;;;;9.97;100.00;97609.25;5060928;28;20033;-90
2023/10/26 04:40:57;;;;;;;7.57;1.58;;;;;;;9.97;100.00;97609.25;5053576;28;20078;-91
2023/10/26 04:43:23;;;;;;;5.00;1.10;;;;;;;9.98;100.00;97616.16;5051519;28;20127;-90
2023/10/26 04:45:49;;;;;;;6.47;1.38;;;;;;;9.96;100.00;97607.63;5047183;28;20123;-90
2023/10/26 04:48:14;;;;;;;10.65;1.88;;;;;;;10.00;100.00;97611.47;5034454;28;20036;-91
2023/10/26 04:50:40;;;;;;;5.35;1.77;;;;;;;10.00;100.00;97608.03;5035121;28;20029;-91
2023/10/26 04:53:06;;;;;;;6.38;1.50;;;;;;;10.00;100.00;97608.81;5049714;28;20036;-90
2023/10/26 04:55:34;;;;;;;6.63;1.08;;;;;;;10.01;100.00;97607.00;5080982;28;20040;-91
2023/10/26 04:58:01;;;;;;;7.65;1.30;;;;;;;10.01;100.00;97607.81;5049760;28;20114;-91
2023/10/26 05:00:27;;;;;;;9.68;1.25;;;;;;;10.00;100.00;97610.66;5054413;28;20033;-91
2023/10/26 05:02:53;;;;;;;7.97;1.30;;;;;;;10.01;100.00;97612.28;5033876;28;20039;-91
2023/10/26 05:05:19;;;;;;;13.80;1.55;;;;;;;9.99;100.00;97601.94;5052719;28;20094;-92
2023/10/26 05:07:45;;;;;;;5.03;1.08;;;;;;;10.00;100.00;97608.81;5052196;28;20029;-92
2023/10/26 05:10:13;;;;;;;6.88;1.73;;;;;;;10.00;100.00;97611.47;5053325;28;20059;-91
2023/10/26 05:12:38;;;;;;;8.20;1.73;;;;;;;10.01;100.00;97607.00;5033467;28;20024;-92
2023/10/26 05:15:05;;;;;;;6.10;1.40;;;;;;;10.01;100.00;97604.34;5031226;28;20032;-91
2023/10/26 05:17:30;;;;;;;10.45;1.67;;;;;;;10.00;100.00;97606.19;5055559;28;20398;-91
2023/10/26 05:19:58;;;;;;;4.30;1.13;;;;;;;10.01;100.00;97607.81;5055846;28;20173;-91
2023/10/26 05:22:23;;;;;;;6.40;1.70;;;;;;;10.01;100.00;97605.19;5039755;28;20548;-92
2023/10/26 05:24:49;;;;;;;5.85;1.27;;;;;;;10.03;100.00;97604.97;5052700;28;20033;-90
2023/10/26 05:27:15;;;;;;;8.60;1.80;;;;;;;10.05;100.00;97600.25;5035160;28;20095;-92
2023/10/26 05:29:41;;;;;;;7.20;1.70;;;;;;;10.04;100.00;97599.47;5050388;28;20125;-90
2023/10/26 05:32:06;;;;;;;7.13;1.60;;;;;;;10.10;100.00;97599.63;5031929;28;20022;-91
2023/10/26 05:34:32;;;;;;;5.90;1.60;;;;;;;10.10;100.00;97605.72;5034776;28;20036;-93
2023/10/26 05:36:58;;;;;;;7.55;1.63;;;;;;;10.10;100.00;97597.00;5023573;28;20036;-92
2023/10/26 05:39:24;;;;;;;9.68;1.80;;;;;;;10.10;100.00;97597.81;5025700;28;20052;-92
2023/10/26 05:41:51;;;;;;;9.40;2.10;;;;;;;10.07;100.00;97587.69;5018085;28;20037;-93
2023/10/26 05:44:17;;;;;;;12.48;2.17;;;;;;;10.07;100.00;97589.50;5016623;28;20029;-92
2023/10/26 05:46:43;;;;;;;10.35;2.05;;;;;;;10.08;100.00;97586.66;5030999;28;20040;-93
2023/10/26 05:49:08;;;;;;;6.32;1.95;;;;;;;10.08;100.00;97585.84;5017053;28;20040;-93
2023/10/26 05:51:34;;;;;;;9.80;2.35;;;;;;;10.05;100.00;97579.97;5022811;28;20417;-92
2023/10/26 05:54:00;;;;;;;11.85;2.40;;;;;;;10.08;100.00;97581.38;5009877;28;20033;-91
2023/10/26 05:56:26;;;;;;;8.82;2.63;;;;;;;10.07;100.00;97579.75;5013666;28;20045;-90
2023/10/26 05:58:52;;;;;;;6.10;2.50;;;;;;;10.05;100.00;97579.16;5010470;28;20039;-89
2023/10/26 06:01:18;;;;;;;12.52;2.70;;;;;;;10.03;100.00;97560.09;5045070;28;20035;-92
2023/10/26 06:03:44;;;;;;;11.57;2.80;;;;;;;10.03;100.00;97558.25;5029656;28;20029;-92
2023/10/26 06:06:11;;;;;;;9.00;2.78;;;;;;;10.00;100.00;97547.34;5041356;28;20036;-90
2023/10/26 06:08:39;;;;;;;9.88;2.90;;;;;;;10.00;100.00;97550.75;5016498;28;20039;-90
2023/10/26 06:11:05;;;;;;;13.35;2.92;;;;;;;9.94;100.00;97551.63;5033370;28;20028;-89
2023/10/26 06:13:31;;;;;;;13.88;2.80;;;;;;;9.93;100.00;97555.28;5039562;28;20018;-91
2023/10/26 06:15:57;;;;;;;14.02;2.95;;;;;;;9.93;100.00;97558.75;5040465;28;20030;-91
2023/10/26 06:18:22;;;;;;;12.50;3.60;;;;;;;9.90;100.00;97551.25;5029960;28;20299;-92
2023/10/26 06:21:01;;;;;;;18.30;3.53;;;;;;;9.93;100.00;97557.91;5025266;28;20044;-92
2023/10/26 06:23:28;;;;;;;10.45;3.30;;;;;;;9.88;100.00;97560.38;5020178;28;20041;-91
2023/10/26 06:26:01;;;;;;;10.48;2.83;;;;;;;9.93;100.00;97563.19;5036857;28;20033;-92
2023/10/26 06:28:28;;;;;;;11.63;3.88;;;;;;;9.88;100.00;97549.81;5054619;28;20459;-91
2023/10/26 06:31:08;;;;;;;14.68;4.68;;;;;;;9.93;100.00;97550.00;5051296;28;20060;-90
2023/10/26 06:33:34;;;;;;;11.75;3.10;;;;;;;9.90;100.00;97548.59;5043940;28;20032;-90
2023/10/26 06:35:59;;;;;;;10.93;2.85;;;;;;;9.89;100.00;97549.63;5052322;28;20545;-92
2023/10/26 06:38:25;;;;;;;16.92;3.30;;;;;;;9.89;100.00;97549.63;5042935;28;20597;-92
2023/10/26 06:40:51;;;;;;;9.90;3.20;;;;;;;9.86;100.00;97539.47;5027198;28;20032;-92
2023/10/26 06:43:17;;;;;;;14.50;3.53;;;;;;;9.83;100.00;97532.00;5045208;28;20055;-91
2023/10/26 06:45:42;;;;;;;15.13;3.22;;;;;;;9.82;100.00;97533.03;5042565;28;20071;-91
2023/10/26 06:48:08;;;;;;;17.08;3.33;;;;;;;9.81;100.00;97534.03;5043855;28;20088;-94
2023/10/26 06:50:34;;;;;;;10.95;3.63;;;;;;;9.79;100.00;97542.16;5054027;28;20027;-92
2023/10/26 06:52:59;;;;;;;10.27;2.97;;;;;;;9.78;100.00;97542.34;5051382;28;20645;-91
2023/10/26 06:55:25;;;;;;;15.55;3.35;;;;;;;9.79;100.00;97538.72;5031690;28;20052;-90
2023/10/26 06:57:51;;;;;;;21.20;3.28;;;;;;;9.75;100.00;97537.50;5032031;28;20364;-90
2023/10/26 07:00:17;;;;;;;11.88;2.83;;;;;;;9.80;100.00;97548.25;5036889;28;20028;-92
2023/10/26 07:02:43;;;;;;;15.85;3.25;;;;;;;9.79;100.00;97544.78;5053698;28;20032;-91
2023/10/26 07:05:08;;;;;;;15.23;3.63;;;;;;;9.80;100.00;97540.34;5032631;28;20037;-91
2023/10/26 07:07:36;;;;;;;11.23;2.97;;;;;;;9.78;100.00;97537.09;5038567;28;20077;-90
2023/10/26 07:10:02;;;;;;;19.05;3.47;;;;;;;9.78;100.00;97534.44;5054071;28;20099;-92
2023/10/26 07:12:29;;;;;;;16.13;3.30;;;;;;;9.78;100.00;97534.44;5039715;28;20052;-90
2023/10/26 07:14:55;;;;;;;14.23;3.72;;;;;;;9.79;100.00;97539.50;5056826;28;20032;-92
2023/10/26 07:17:21;;;;;;;8.60;3.13;;;;;;;9.74;100.00;97533.25;5038466;28;20043;-90
2023/10/26 07:19:47;;;;;;;18.20;2.70;;;;;;;9.73;100.00;97529.03;5057895;28;20052;-92
2023/10/26 07:22:13;;;;;;;8.35;2.78;;;;;;;9.70;100.00;97529.44;5059619;28;20032;-91
2023/10/26 07:24:38;;;;;;;14.75;2.47;;;;;;;9.65;100.00;97536.13;5040602;28;20043;-92
2023/10/26 07:27:04;;;;;;;11.27;2.83;;;;;;;9.65;100.00;97538.00;5058747;28;20052;-90
2023/10/26 07:29:30;;;;;;;13.82;2.28;;;;;;;9.63;100.00;97535.56;5062364;28;20038;-91
2023/10/26 07:31:56;;;;;;;14.40;2.25;;;;;;;9.64;100.00;97531.91;5048155;28;20032;-91
2023/10/26 07:34:21;;;;;;;7.68;2.15;;;;;;;9.64;100.00;97537.16;5074553;28;20401;-92
2023/10/26 07:36:48;;;;;;;10.48;2.20;;;;;;;9.67;100.00;97533.28;5060345;28;20036;-91
2023/10/26 07:39:14;;;;;;;18.45;2.22;;;;;;;9.67;100.00;97531.47;5059864;28;20032;-91
2023/10/26 07:41:40;;;;;;;14.93;2.50;;;;;;;9.68;100.00;97527.81;5057511;28;20047;-91
2023/10/26 07:44:05;;;;;;;12.32;2.80;;;;;;;9.64;100.00;97525.81;5037171;28;20097;-92
2023/10/26 07:46:31;;;;;;;6.10;2.38;;;;;;;9.62;100.00;97522.59;5045642;28;20127;-92
2023/10/26 07:48:57;;;;;;;10.80;2.17;;;;;;;9.59;100.00;97529.06;5040555;28;20032;-92
2023/10/26 07:51:22;;;;;;;17.80;2.70;;;;;;;9.58;100.00;97534.56;5073314;28;20044;-92
2023/10/26 07:53:48;;;;;;;15.93;2.75;;;;;;;9.57;100.00;97525.84;5039925;28;20479;-91
2023/10/26 07:56:15;;;;;;;12.88;3.22;;;;;;;9.58;100.00;97524.00;5050965;28;20032;-92
2023/10/26 07:58:40;;;;;;;14.13;3.10;;;;;;;9.59;100.00;97523.81;5074527;28;20120;-92
2023/10/26 08:01:10;;;;;;;14.00;3.22;;;;;;;9.64;100.00;97523.16;5058235;28;20044;-92
2023/10/26 08:03:36;;;;;;;12.48;2.55;;;;;;;9.58;100.00;97521.38;5059188;28;20036;-81
2023/10/26 08:06:02;;;;;;;10.20;2.85;;;;;;;9.61;100.00;97531.50;5064229;28;20116;-91
2023/10/26 08:08:29;;;;;;;22.02;2.80;;;;;;;9.62;100.00;97523.38;5055766;28;20509;-92
2023/10/26 08:11:11;;;;;;;15.70;3.15;;;;;;;9.68;100.00;97516.47;5053744;28;20036;-90
2023/10/26 08:13:37;;;;;;;13.43;3.38;;;;;;;9.61;100.00;97518.31;5060330;28;20032;-92
2023/10/26 08:16:03;;;;;;;12.32;3.30;;;;;;;9.59;100.00;97517.72;5074422;28;20519;-90
2023/10/26 08:18:29;;;;;;;12.32;3.53;;;;;;;9.61;100.00;97518.31;5045548;28;20036;-91
2023/10/26 08:20:54;;;;;;;15.70;3.13;;;;;;;9.60;100.00;97519.34;5056883;28;20126;-92
2023/10/26 08:23:20;;;;;;;16.80;3.40;;;;;;;9.60;100.00;97516.72;5062097;28;20032;-91
2023/10/26 08:25:47;;;;;;;13.38;3.63;;;;;;;9.60;100.00;97514.88;5052498;28;20401;-90
2023/10/26 08:28:14;;;;;;;12.00;3.45;;;;;;;9.64;100.00;97512.63;5071747;28;20154;-92
2023/10/26 08:30:39;;;;;;;13.60;3.65;;;;;;;9.62;100.00;97506.75;5056843;28;20037;-91
2023/10/26 08:33:05;;;;;;;15.88;3.03;;;;;;;9.63;100.00;97508.38;5036404;28;20033;-91
2023/10/26 08:35:31;;;;;;;15.10;3.20;;;;;;;9.66;100.00;97515.84;5059011;28;20031;-92
2023/10/26 08:37:57;;;;;;;16.88;3.53;;;;;;;9.68;100.00;97511.19;5059609;28;20134;-92
2023/10/26 08:40:23;;;;;;;9.70;2.38;;;;;;;9.72;100.00;97515.00;5042460;28;20044;-91
2023/10/26 08:42:49;;;;;;;11.77;2.70;;;;;;;9.79;100.00;97509.72;5055583;28;20040;-91
2023/10/26 08:45:23;;;;;;;14.38;2.90;;;;;;;9.92;100.00;97508.81;5045452;28;20051;-91
2023/10/26 08:47:50;;;;;;;15.93;2.72;;;;;;;9.91;100.00;97515.09;5058708;28;20077;-93
2023/10/26 08:50:21;;;;;;;21.70;3.05;;;;;;;10.00;100.00;97510.41;5063745;28;20120;-91
2023/10/26 08:52:48;;;;;;;16.02;2.80;;;;;;;10.00;100.00;97505.91;5060349;28;20047;-91
2023/10/26 08:55:14;;;;;;;10.13;2.63;;;;;;;10.03;100.00;97512.59;5055776;28;20036;-89
2023/10/26 08:57:54;;;;;;;16.50;2.95;;;;;;;10.12;100.00;97510.50;5054800;28;20029;-89
2023/10/26 09:00:21;;;;;;;15.55;2.58;;;;;;;10.07;100.00;97512.97;5069274;28;20443;-92
2023/10/26 09:02:50;;;;;;;12.73;2.22;;;;;;;10.11;100.00;97516.81;5057130;28;20398;-91
2023/10/26 09:05:17;;;;;;;15.90;2.53;;;;;;;10.10;100.00;97515.19;5057262;28;20067;-91
2023/10/26 09:07:43;;;;;;;16.52;3.40;;;;;;;10.14;100.00;97522.47;5054258;28;20516;-91
2023/10/26 09:10:09;;;;;;;10.07;2.75;;;;;;;10.18;100.00;97533.41;5038274;28;20043;-91
2023/10/26 09:12:35;;;;;;;11.68;2.20;;;;;;;10.17;100.00;97529.16;5057563;28;20032;-91
2023/10/26 09:15:06;;;;;;;16.38;3.20;;;;;;;10.25;100.00;97534.19;5042688;28;20028;-91
2023/10/26 09:17:33;;;;;;;16.70;2.72;;;;;;;10.25;100.00;97542.09;5041454;28;20468;-92
2023/10/26 09:20:15;;;;;;;17.35;2.45;;;;;;;10.33;100.00;97532.28;5058027;28;20039;-90
2023/10/26 09:22:42;;;;;;;18.23;2.40;;;;;;;10.34;100.00;97534.69;5030355;28;20039;-91
2023/10/26 09:25:12;;;;;;;15.40;2.55;;;;;;;10.39;100.00;97529.59;5049127;28;20124;-93
2023/10/26 09:27:39;;;;;;;13.80;2.63;;;;;;;10.38;100.00;97530.59;5071568;28;20055;-92
2023/10/26 09:30:06;;;;;;;16.20;2.78;;;;;;;10.42;100.00;97528.34;5072869;28;20028;-79
2023/10/26 09:32:33;;;;;;;14.73;2.38;;;;;;;10.46;100.00;97526.94;5053161;28;20765;-90
2023/10/26 09:35:00;;;;;;;16.55;2.60;;;;;;;10.48;100.00;97524.88;5054764;28;20536;-89
2023/10/26 09:37:26;;;;;;;12.02;1.80;;;;;;;10.54;100.00;97525.84;5028137;28;20385;-89
2023/10/26 09:39:52;;;;;;;20.30;2.92;;;;;;;10.65;100.00;97525.13;5036596;28;20047;-91
2023/10/26 09:42:19;;;;;;;14.23;2.60;;;;;;;10.72;100.00;97519.78;5069342;28;20040;-91
2023/10/26 09:44:45;;;;;;;19.58;3.22;;;;;;;10.75;100.00;97523.84;5048772;28;20127;-90
2023/10/26 09:47:11;;;;;;;12.40;2.60;;;;;;;10.81;100.00;97525.63;5054055;28;20039;-90
2023/10/26 09:49:37;;;;;;;15.18;3.63;;;;;;;10.92;100.00;97522.22;5077359;28;20036;-93
2023/10/26 09:52:04;;;;;;;12.90;2.38;;;;;;;11.08;100.00;97520.06;5058041;28;20025;-91
2023/10/26 09:54:35;;;;;;;10.32;2.55;;;;;;;11.29;100.00;97516.13;5044777;28;20572;-90
2023/10/26 09:57:10;;;;;;;11.43;2.50;;;;;;;11.44;100.00;97514.13;5038363;28;20055;-91
2023/10/26 09:59:37;;;;;;;13.73;2.45;;;;;;;11.50;100.00;97513.25;5035231;28;20032;-89
2023/10/26 10:02:15;;;;;;;11.63;2.28;;;;;;;11.60;100.00;97510.06;5053644;28;20492;-90
2023/10/26 10:04:42;;;;;;;11.02;2.22;;;;;;;11.63;100.00;97514.91;5047932;28;20040;-90
2023/10/26 10:07:08;;;;;;;15.40;2.50;;;;;;;11.69;100.00;97503.44;5052746;28;20152;-90
2023/10/26 10:10:04;;;;;;;11.57;2.30;;;;;;;11.80;100.00;97515.13;5070087;28;20061;-92
2023/10/26 10:12:31;;;;;;;8.77;1.70;;;;;;;11.79;100.00;97506.38;5065795;28;20028;-94
2023/10/26 10:15:06;;;;;;;11.10;2.28;;;;;;;11.85;100.00;97512.56;5048932;28;20119;-90
2023/10/26 10:17:44;;;;;;;13.02;2.10;;;;;;;11.88;100.00;97514.00;5056754;28;20031;-91
2023/10/26 10:20:19;;;;;;;12.10;1.70;;;;;;;11.86;100.00;97500.16;5034592;28;20043;-90
2023/10/26 10:22:46;;;;;;;6.03;1.60;;;;;;;11.74;100.00;97508.88;5052433;28;20512;-93
2023/10/26 10:25:13;;;;;;;9.98;2.58;;;;;;;11.70;100.00;97510.34;5045552;28;20041;-92
2023/10/26 10:27:48;;;;;;;12.48;2.53;;;;;;;11.70;100.00;97504.25;5064925;28;20056;-91
2023/10/26 10:30:16;;;;;;;11.83;1.80;;;;;;;11.65;100.00;97505.75;5042134;28;20502;-89
2023/10/26 10:32:42;;;;;;;12.88;1.98;;;;;;;11.64;100.00;97511.25;5051483;28;20032;-92
2023/10/26 10:35:09;;;;;;;10.77;2.08;;;;;;;11.75;100.00;97512.31;5038964;28;20031;-90
2023/10/26 10:37:36;;;;;;;6.43;1.40;;;;;;;11.79;100.00;97497.59;5075816;28;20066;-89
2023/10/26 10:40:11;;;;;;;9.68;1.77;;;;;;;11.88;100.00;97498.91;5044817;28;20059;-90
2023/10/26 10:42:46;;;;;;;7.93;1.30;;;;;;;11.88;100.00;97493.59;5064228;28;20882;-90
2023/10/26 10:45:12;;;;;;;11.40;1.73;;;;;;;11.90;100.00;97493.38;5039864;28;20043;-91
2023/10/26 10:47:42;;;;;;;8.77;1.08;;;;;;;11.99;100.00;97486.72;5059128;28;20360;-87
2023/10/26 10:50:16;;;;;;;6.13;0.95;;;;;;;12.07;100.00;97480.28;5055977;28;20487;-92
2023/10/26 10:52:41;;;;;;;6.45;1.20;;;;;;;12.09;100.00;97486.19;5064522;28;20380;-89
2023/10/26 10:55:08;;;;;;;11.65;1.13;;;;;;;12.17;100.00;97489.56;5040124;28;20033;-89
2023/10/26 10:57:33;;;;;;;7.60;1.25;;;;;;;12.22;100.00;97485.19;5042200;28;20076;-90
2023/10/26 10:59:59;;;;;;;7.50;1.52;;;;;;;12.32;100.00;97489.09;5055296;28;20039;-89
2023/10/26 11:02:25;;;;;;;5.68;1.35;;;;;;;12.44;100.00;97487.28;5046733;28;20039;-90
2023/10/26 11:04:52;;;;;;;4.88;0.98;;;;;;;12.52;100.00;97483.47;5055535;28;20032;-91
2023/10/26 11:07:23;;;;;;;7.53;1.00;;;;;;;12.63;100.00;97489.81;5033487;28;20060;-90
2023/10/26 11:09:54;;;;;;;6.05;0.82;;;;;;;12.64;100.00;97484.31;5084369;28;20074;-90
2023/10/26 11:12:20;;;;;;;9.95;1.40;;;;;;;12.74;100.00;97474.97;5060158;28;20033;-90
2023/10/26 11:14:51;;;;;;;6.35;1.10;;;;;;;12.81;100.00;97480.94;5054828;28;20036;-91
2023/10/26 11:17:22;;;;;;;5.68;1.20;;;;;;;12.88;100.00;97478.16;5053014;28;20079;-90
2023/10/26 11:19:49;;;;;;;10.52;1.30;;;;;;;12.86;100.00;97478.41;5048151;28;20038;-90
2023/10/26 11:22:15;;;;;;;6.43;0.70;;;;;;;12.81;100.00;97472.97;5043004;28;20095;-91
2023/10/26 11:24:45;;;;;;;9.40;1.60;;;;;;;12.79;100.00;97469.75;5057453;28;20040;-91